Time;durP1;ratioP1;P1;durP2;ratioP2;P2;SDS_P1;SDS_P2;PMS_P1;PMS_P2;Temp;Humidity;BMP_temperature;BMP_pressure;BME280_temperature;BME280_humidity;BME280_pressure;Samples;Min_cycle;Max_cycle;Signal;HPM_P1;HPM_P2
2021/12/06 00:00:09;;;;;;;59.00;27.88;;;;;;;0.40;100.00;100725.91;7396529;19;21119;-43
2021/12/06 00:02:41;;;;;;;62.10;26.90;;;;;;;0.38;100.00;100735.06;7404059;19;20459;-44
2021/12/06 00:05:12;;;;;;;59.78;26.90;;;;;;;0.33;100.00;100728.69;7397451;19;20191;-47
2021/12/06 00:07:42;;;;;;;56.15;28.02;;;;;;;0.30;100.00;100735.19;7399167;19;20158;-45
2021/12/06 00:10:12;;;;;;;52.08;25.75;;;;;;;0.24;100.00;100738.97;7396926;19;20209;-44
2021/12/06 00:12:43;;;;;;;60.35;28.00;;;;;;;0.29;100.00;100746.09;7401755;19;20178;-48
2021/12/06 00:15:14;;;;;;;56.90;27.10;;;;;;;0.35;100.00;100750.00;7398266;19;20186;-46
2021/12/06 00:17:46;;;;;;;59.95;27.70;;;;;;;0.51;100.00;100748.75;7399626;19;20174;-49
2021/12/06 00:20:18;;;;;;;59.63;28.13;;;;;;;0.40;100.00;100748.75;7396587;19;20480;-45
2021/12/06 00:22:47;;;;;;;54.65;26.05;;;;;;;0.37;100.00;100753.56;7401029;19;20179;-46
2021/12/06 00:25:17;;;;;;;51.67;26.17;;;;;;;0.41;100.00;100749.63;7395761;19;20190;-46
2021/12/06 00:27:47;;;;;;;55.85;27.65;;;;;;;0.47;100.00;100749.25;7399263;19;20415;-48
2021/12/06 00:30:17;;;;;;;56.88;28.02;;;;;;;0.49;100.00;100752.81;7395678;19;20182;-45
2021/12/06 00:32:50;;;;;;;53.80;26.20;;;;;;;0.43;100.00;100752.28;7400696;19;20183;-47
2021/12/06 00:35:24;;;;;;;55.63;26.45;;;;;;;0.38;100.00;100745.22;7395390;19;20245;-45
2021/12/06 00:37:58;;;;;;;57.88;27.40;;;;;;;0.39;100.00;100744.44;7398926;19;20154;-44
2021/12/06 00:40:29;;;;;;;55.10;26.70;;;;;;;0.39;100.00;100751.16;7395698;19;20192;-46
2021/12/06 00:42:59;;;;;;;56.83;26.13;;;;;;;0.33;100.00;100754.09;7400472;19;20123;-49
2021/12/06 00:45:28;;;;;;;56.22;25.30;;;;;;;0.31;100.00;100760.66;7393901;19;20190;-45
2021/12/06 00:48:01;;;;;;;52.80;26.02;;;;;;;0.34;100.00;100758.41;7398350;19;20167;-47
2021/12/06 00:50:34;;;;;;;56.90;27.08;;;;;;;0.38;100.00;100757.91;7395530;19;20249;-45
2021/12/06 00:53:04;;;;;;;68.60;27.70;;;;;;;0.37;100.00;100765.38;7400052;19;20171;-44
2021/12/06 00:55:34;;;;;;;53.53;26.38;;;;;;;0.34;100.00;100758.41;7395174;19;20246;-45
2021/12/06 00:58:03;;;;;;;48.70;24.33;;;;;;;0.34;100.00;100758.41;7397900;19;20173;-48
2021/12/06 01:00:36;;;;;;;54.03;24.95;;;;;;;0.38;100.00;100760.44;7395215;19;20208;-47
2021/12/06 01:03:11;;;;;;;56.20;27.65;;;;;;;0.42;100.00;100770.84;7399795;19;20119;-45
2021/12/06 01:05:41;;;;;;;56.80;25.25;;;;;;;0.36;100.00;100778.84;7393745;19;20213;-45
2021/12/06 01:08:11;;;;;;;54.33;24.83;;;;;;;0.29;100.00;100782.50;7397386;19;20159;-45
2021/12/06 01:10:42;;;;;;;46.75;24.88;;;;;;;0.34;100.00;100782.88;7393703;19;20250;-43
2021/12/06 01:13:12;;;;;;;50.83;25.83;;;;;;;0.31;100.00;100783.50;7399517;19;20394;-45
2021/12/06 01:15:42;;;;;;;60.88;26.27;;;;;;;0.30;100.00;100781.75;7394303;19;20192;-44
2021/12/06 01:18:18;;;;;;;54.90;26.08;;;;;;;0.33;100.00;100787.09;7398162;19;20166;-46
2021/12/06 01:20:54;;;;;;;50.90;25.08;;;;;;;0.32;100.00;100786.94;7400437;19;20237;-45
2021/12/06 01:23:29;;;;;;;51.35;25.42;;;;;;;0.35;100.00;100792.28;7413712;19;20174;-44
2021/12/06 01:26:15;;;;;;;53.95;26.73;;;;;;;0.39;100.00;100802.84;7406906;19;20181;-45
2021/12/06 01:31:44;;;;;;;59.17;26.98;;;;;;;0.45;100.00;100815.13;7407908;19;20266;-44
2021/12/06 01:39:50;;;;;;;62.83;27.30;;;;;;;0.41;100.00;100818.16;7407516;19;20203;-47
2021/12/06 01:42:19;;;;;;;52.65;26.58;;;;;;;0.38;100.00;100820.47;7412867;19;20115;-47
2021/12/06 01:44:51;;;;;;;58.30;26.10;;;;;;;0.34;100.00;100814.25;7407985;19;20459;-46
2021/12/06 01:47:22;;;;;;;56.20;27.08;;;;;;;0.37;100.00;100814.50;7410580;19;20223;-48
2021/12/06 01:49:57;;;;;;;50.63;24.88;;;;;;;0.36;100.00;100817.78;7407778;19;20178;-46
2021/12/06 01:52:30;;;;;;;50.90;23.65;;;;;;;0.42;100.00;100812.34;7412792;19;20127;-46
2021/12/06 01:55:00;;;;;;;52.17;25.75;;;;;;;0.42;100.00;100816.53;7409298;19;20192;-45
2021/12/06 01:57:31;;;;;;;54.17;27.40;;;;;;;0.41;100.00;100820.72;7410662;19;20158;-45
2021/12/06 02:00:01;;;;;;;56.83;24.63;;;;;;;0.40;100.00;100819.84;7405248;19;20241;-43
2021/12/06 02:02:31;;;;;;;50.72;26.25;;;;;;;0.48;100.00;100815.41;7408205;19;20157;-44
2021/12/06 02:05:04;;;;;;;49.17;24.48;;;;;;;0.46;100.00;100821.13;7408449;19;20186;-45
2021/12/06 02:07:33;;;;;;;55.40;26.58;;;;;;;0.41;100.00;100820.72;7409823;19;20161;-45
2021/12/06 02:10:03;;;;;;;55.92;25.52;;;;;;;0.42;100.00;100829.22;7407657;19;20237;-44
2021/12/06 02:12:33;;;;;;;52.83;25.60;;;;;;;0.39;100.00;100823.16;7414883;19;20454;-44
2021/12/06 02:15:06;;;;;;;54.10;25.75;;;;;;;0.36;100.00;100825.41;7407548;19;20592;-47
2021/12/06 02:17:39;;;;;;;50.67;25.55;;;;;;;0.43;100.00;100833.53;7410320;19;20155;-43
2021/12/06 02:20:22;;;;;;;49.00;25.15;;;;;;;0.47;100.00;100822.88;7406486;19;20241;-45
2021/12/06 02:22:54;;;;;;;53.15;25.33;;;;;;;0.44;100.00;100817.53;7412015;19;20136;-43
2021/12/06 02:25:24;;;;;;;55.03;26.40;;;;;;;0.47;100.00;100810.19;7407461;19;20241;-43
2021/12/06 02:27:55;;;;;;;50.25;25.25;;;;;;;0.46;100.00;100813.50;7409729;19;20210;-43
2021/12/06 02:30:25;;;;;;;48.65;24.95;;;;;;;0.42;100.00;100821.59;7406498;19;20453;-45
2021/12/06 02:32:56;;;;;;;53.95;25.25;;;;;;;0.38;100.00;100821.38;7403757;19;20123;-43
2021/12/06 02:35:27;;;;;;;44.75;24.30;;;;;;;0.44;100.00;100830.22;7399382;19;20443;-44
2021/12/06 02:38:01;;;;;;;58.63;25.67;;;;;;;0.45;100.00;100827.84;7402546;19;20617;-44
2021/12/06 02:40:32;;;;;;;49.17;24.23;;;;;;;0.36;100.00;100825.41;7398389;19;20188;-44
2021/12/06 02:43:03;;;;;;;51.20;24.65;;;;;;;0.36;100.00;100827.94;7404401;19;20175;-43
2021/12/06 02:45:34;;;;;;;48.17;23.75;;;;;;;0.30;100.00;100832.50;7398566;19;20190;-43
2021/12/06 02:48:06;;;;;;;51.65;23.92;;;;;;;0.30;100.00;100824.88;7402078;19;20211;-44
2021/12/06 02:50:39;;;;;;;50.80;25.65;;;;;;;0.24;100.00;100822.75;7399083;19;20206;-43
2021/12/06 02:53:11;;;;;;;47.50;21.48;;;;;;;0.30;100.00;100818.94;7404068;19;20130;-46
2021/12/06 02:55:42;;;;;;;45.42;21.92;;;;;;;0.31;100.00;100829.19;7398473;19;20189;-45
2021/12/06 02:58:21;;;;;;;47.47;22.52;;;;;;;0.33;100.00;100825.16;7401479;19;20218;-44
2021/12/06 03:00:53;;;;;;;44.00;22.17;;;;;;;0.37;100.00;100829.72;7393376;19;20457;-43
2021/12/06 03:03:24;;;;;;;49.95;22.58;;;;;;;0.34;100.00;100836.19;7403674;19;20202;-43
2021/12/06 03:05:55;;;;;;;42.85;21.30;;;;;;;0.33;100.00;100837.84;7398705;19;20190;-52
2021/12/06 03:08:42;;;;;;;45.60;21.85;;;;;;;0.34;100.00;100834.56;7400816;19;20119;-50
2021/12/06 03:11:14;;;;;;;42.28;21.35;;;;;;;0.35;100.00;100831.25;7397579;19;20245;-44
2021/12/06 03:13:44;;;;;;;44.88;20.90;;;;;;;0.32;100.00;100838.63;7403457;19;20123;-45
2021/12/06 03:16:14;;;;;;;48.17;22.20;;;;;;;0.36;100.00;100835.56;7397512;19;20190;-48
2021/12/06 03:18:44;;;;;;;46.20;21.25;;;;;;;0.38;100.00;100836.59;7408228;19;20127;-51
2021/12/06 03:21:14;;;;;;;43.30;21.90;;;;;;;0.40;100.00;100842.69;7398070;19;20205;-45
2021/12/06 03:23:47;;;;;;;49.72;22.92;;;;;;;0.37;100.00;100839.88;7403079;19;20486;-48
2021/12/06 03:26:17;;;;;;;100.07;45.33;;;;;;;0.37;100.00;100842.41;7396623;19;20234;-45
2021/12/06 03:28:49;;;;;;;49.58;21.60;;;;;;;0.36;100.00;100844.84;7402897;19;20612;-46
2021/12/06 03:31:19;;;;;;;48.28;23.45;;;;;;;0.26;100.00;100840.66;7396862;19;20186;-49
2021/12/06 03:33:52;;;;;;;45.83;21.83;;;;;;;0.21;100.00;100852.06;7402696;19;20136;-44
2021/12/06 03:36:23;;;;;;;45.25;22.58;;;;;;;0.20;100.00;100847.75;7396115;19;20194;-45
2021/12/06 03:38:58;;;;;;;52.70;23.58;;;;;;;0.21;100.00;100852.06;7404014;19;20123;-45
2021/12/06 03:41:28;;;;;;;49.38;21.92;;;;;;;0.14;100.00;100858.25;7397632;19;20455;-44
2021/12/06 03:44:00;;;;;;;50.05;23.85;;;;;;;0.06;100.00;100866.84;7402158;19;20264;-45
2021/12/06 03:46:31;;;;;;;46.05;21.50;;;;;;;-0.16;100.00;100876.03;7395813;19;20190;-43
2021/12/06 03:49:01;;;;;;;48.08;22.20;;;;;;;-0.20;100.00;100873.97;7402141;19;20123;-45
2021/12/06 03:51:31;;;;;;;46.63;23.20;;;;;;;-0.17;100.00;100869.19;7397030;19;20195;-45
2021/12/06 03:54:03;;;;;;;45.63;21.77;;;;;;;-0.14;100.00;100876.19;7401867;19;20171;-44
2021/12/06 03:56:32;;;;;;;46.75;22.08;;;;;;;-0.16;100.00;100876.03;7395985;19;20201;-45
2021/12/06 03:59:02;;;;;;;52.53;24.15;;;;;;;-0.15;100.00;100884.53;7401867;19;20548;-45
2021/12/06 04:01:32;;;;;;;56.13;21.77;;;;;;;-0.22;100.00;100880.56;7396490;19;20190;-48
2021/12/06 04:04:02;;;;;;;40.92;21.17;;;;;;;-0.22;100.00;100885.66;7403679;19;20134;-44
2021/12/06 04:06:31;;;;;;;49.22;22.20;;;;;;;-0.22;100.00;100878.03;7394683;19;20194;-44
2021/12/06 04:09:05;;;;;;;61.28;25.48;;;;;;;-0.16;100.00;100876.03;7399212;19;20178;-44
2021/12/06 04:11:36;;;;;;;44.95;21.98;;;;;;;-0.14;100.00;100879.59;7396455;19;20193;-46
2021/12/06 04:14:06;;;;;;;45.15;23.83;;;;;;;-0.15;100.00;100882.88;7402479;19;20190;-46
2021/12/06 04:16:37;;;;;;;41.30;20.75;;;;;;;-0.12;100.00;100882.25;7394946;19;20496;-45
2021/12/06 04:19:08;;;;;;;50.83;23.25;;;;;;;-0.17;100.00;100888.56;7403595;19;20157;-46
2021/12/06 04:21:38;;;;;;;54.78;22.58;;;;;;;-0.13;100.00;100895.72;7398867;19;20189;-46
2021/12/06 04:24:11;;;;;;;46.55;23.52;;;;;;;-0.10;100.00;100895.09;7401015;19;20127;-47
2021/12/06 04:26:41;;;;;;;50.35;23.92;;;;;;;-0.06;100.00;100892.06;7394438;19;20338;-45
2021/12/06 04:29:12;;;;;;;49.20;22.90;;;;;;;-0.10;100.00;100892.56;7399094;19;20126;-44
2021/12/06 04:31:45;;;;;;;48.10;23.13;;;;;;;-0.09;100.00;100892.69;7395772;19;20186;-46
2021/12/06 04:34:14;;;;;;;49.78;23.90;;;;;;;-0.05;100.00;100894.72;7401169;19;20127;-47
2021/12/06 04:36:45;;;;;;;45.60;22.15;;;;;;;-0.07;100.00;100895.34;7394140;19;20186;-45
2021/12/06 04:39:19;;;;;;;43.42;21.63;;;;;;;-0.08;100.00;100894.47;7400375;19;20126;-47
2021/12/06 04:41:49;;;;;;;46.38;21.75;;;;;;;-0.05;100.00;100893.84;7395013;19;20186;-45
2021/12/06 04:44:19;;;;;;;45.03;22.05;;;;;;;0.01;100.00;100898.53;7400236;19;20129;-49
2021/12/06 04:46:49;;;;;;;41.03;19.50;;;;;;;-0.02;100.00;100901.69;7393604;19;20241;-44
2021/12/06 04:49:18;;;;;;;38.17;18.98;;;;;;;0.02;100.00;100908.84;7398508;19;20137;-46
2021/12/06 04:51:54;;;;;;;39.83;18.23;;;;;;;0.01;100.00;100909.59;7394922;19;20712;-45
2021/12/06 04:54:30;;;;;;;33.15;17.48;;;;;;;0.16;100.00;100914.22;7399842;19;20413;-45
2021/12/06 04:57:04;;;;;;;40.25;19.17;;;;;;;0.14;100.00;100924.22;7396721;19;20185;-45
2021/12/06 04:59:38;;;;;;;41.88;19.20;;;;;;;0.11;100.00;100932.44;7395391;19;20122;-45
2021/12/06 05:02:11;;;;;;;39.50;18.63;;;;;;;0.08;100.00;100937.28;7399203;19;20119;-45
2021/12/06 05:04:47;;;;;;;36.30;18.23;;;;;;;0.08;100.00;100937.28;7395501;19;20403;-47
2021/12/06 05:07:19;;;;;;;41.45;19.55;;;;;;;0.03;100.00;100943.59;7398150;19;20158;-44
2021/12/06 05:09:52;;;;;;;37.80;18.30;;;;;;;0.03;100.00;100937.63;7394363;19;20205;-46
2021/12/06 05:12:24;;;;;;;45.72;19.70;;;;;;;-0.06;100.00;100943.69;7399168;19;20372;-44
2021/12/06 05:14:54;;;;;;;39.97;18.00;;;;;;;-0.06;100.00;100942.81;7394895;19;20183;-45
2021/12/06 05:17:24;;;;;;;39.53;19.60;;;;;;;-0.10;100.00;100950.91;7397994;19;20158;-49
2021/12/06 05:19:54;;;;;;;37.92;18.50;;;;;;;-0.15;100.00;100953.91;7394561;19;20186;-45
2021/12/06 05:22:24;;;;;;;40.05;19.20;;;;;;;-0.11;100.00;100960.13;7398893;19;20127;-48
2021/12/06 05:24:56;;;;;;;36.30;18.48;;;;;;;-0.12;100.00;100955.81;7394436;19;20245;-49
2021/12/06 05:27:29;;;;;;;45.63;19.23;;;;;;;-0.08;100.00;100951.91;7397425;19;20427;-43
2021/12/06 05:30:02;;;;;;;43.40;18.60;;;;;;;-0.15;100.00;100953.03;7394310;19;20190;-44
2021/12/06 05:32:34;;;;;;;39.65;20.48;;;;;;;-0.16;100.00;100952.13;7398903;19;20131;-48
2021/12/06 05:35:07;;;;;;;41.25;19.40;;;;;;;-0.15;100.00;100958.97;7393361;19;20192;-48
2021/12/06 05:37:39;;;;;;;38.53;18.85;;;;;;;-0.19;100.00;100966.19;7401521;19;20165;-46
2021/12/06 05:40:14;;;;;;;34.92;18.10;;;;;;;-0.20;100.00;100967.81;7393532;19;20246;-45
2021/12/06 05:42:45;;;;;;;44.70;20.33;;;;;;;-0.19;100.00;100977.25;7398834;19;20129;-46
2021/12/06 05:45:16;;;;;;;45.72;18.65;;;;;;;-0.20;100.00;100982.16;7393611;19;20245;-46
2021/12/06 05:47:46;;;;;;;36.45;18.15;;;;;;;-0.18;100.00;100981.56;7397100;19;20162;-45
2021/12/06 05:50:16;;;;;;;39.25;18.63;;;;;;;-0.18;100.00;100986.63;7391797;19;20249;-49
2021/12/06 05:52:46;;;;;;;41.50;18.70;;;;;;;-0.20;100.00;101000.78;7398492;19;20533;-48
2021/12/06 05:55:18;;;;;;;40.53;19.40;;;;;;;-0.20;100.00;100995.72;7393587;19;20250;-45
2021/12/06 05:57:50;;;;;;;36.53;17.50;;;;;;;-0.23;100.00;101003.06;7396911;19;20176;-45
2021/12/06 06:00:21;;;;;;;34.55;18.10;;;;;;;-0.22;100.00;100996.34;7392723;19;20186;-44
2021/12/06 06:02:52;;;;;;;36.42;17.33;;;;;;;-0.24;100.00;100997.84;7398302;19;20171;-45
2021/12/06 06:05:22;;;;;;;33.15;17.77;;;;;;;-0.26;100.00;100991.78;7392309;19;20187;-45
2021/12/06 06:07:51;;;;;;;40.85;17.83;;;;;;;-0.28;100.00;101001.78;7398806;19;20154;-48
2021/12/06 06:10:24;;;;;;;34.50;15.70;;;;;;;-0.30;100.00;101003.28;7399630;19;20249;-50
2021/12/06 06:12:53;;;;;;;31.55;16.10;;;;;;;-0.27;100.00;101011.16;7407174;19;20178;-49
2021/12/06 06:15:23;;;;;;;39.10;17.35;;;;;;;-0.25;100.00;101008.75;7399395;19;20190;-47
2021/12/06 06:17:52;;;;;;;31.48;16.00;;;;;;;-0.27;100.00;101011.16;7403153;19;20154;-42
2021/12/06 06:20:24;;;;;;;30.67;16.42;;;;;;;-0.30;100.00;101015.97;7399510;19;20186;-44
2021/12/06 06:22:54;;;;;;;38.25;17.25;;;;;;;-0.24;100.00;101019.06;7406834;19;20134;-46
2021/12/06 06:25:26;;;;;;;33.72;15.85;;;;;;;-0.26;100.00;101028.16;7400639;19;20195;-43
2021/12/06 06:27:55;;;;;;;33.55;15.98;;;;;;;-0.25;100.00;101032.50;7403254;19;20151;-47
2021/12/06 06:30:25;;;;;;;33.03;16.00;;;;;;;-0.26;100.00;101029.81;7399930;19;20250;-50
2021/12/06 06:32:54;;;;;;;29.02;14.98;;;;;;;-0.24;100.00;101038.44;7404742;19;20115;-48
2021/12/06 06:35:25;;;;;;;34.50;16.38;;;;;;;-0.27;100.00;101033.97;7399037;19;20253;-49
2021/12/06 06:37:55;;;;;;;26.73;14.10;;;;;;;-0.30;100.00;101033.72;7402381;19;20155;-44
2021/12/06 06:40:27;;;;;;;36.28;15.60;;;;;;;-0.23;100.00;101040.22;7398715;19;20461;-44
2021/12/06 06:42:57;;;;;;;32.25;15.23;;;;;;;-0.25;100.00;101042.63;7404502;19;20167;-45
2021/12/06 06:45:26;;;;;;;29.00;13.70;;;;;;;-0.24;100.00;101039.34;7398506;19;20330;-44
2021/12/06 06:47:56;;;;;;;28.10;13.45;;;;;;;-0.23;100.00;101050.38;7402144;19;20214;-43
2021/12/06 06:50:26;;;;;;;28.98;15.48;;;;;;;-0.21;100.00;101048.88;7397029;19;20584;-44
2021/12/06 06:52:56;;;;;;;28.15;14.10;;;;;;;-0.20;100.00;101049.00;7404030;19;20123;-44
2021/12/06 06:55:28;;;;;;;26.77;14.15;;;;;;;-0.15;100.00;101042.69;7398712;19;20242;-45
2021/12/06 06:57:58;;;;;;;32.33;16.42;;;;;;;-0.09;100.00;101044.00;7401954;19;20267;-44
2021/12/06 07:00:29;;;;;;;26.33;13.55;;;;;;;-0.11;100.00;101048.94;7398343;19;20186;-48
2021/12/06 07:03:00;;;;;;;21.40;12.57;;;;;;;-0.11;100.00;101046.38;7403759;19;20134;-44
2021/12/06 07:05:30;;;;;;;25.85;12.48;;;;;;;-0.14;100.00;101049.53;7398104;19;20205;-43
2021/12/06 07:08:00;;;;;;;23.27;11.60;;;;;;;-0.23;100.00;101051.25;7401457;19;20163;-45
2021/12/06 07:10:32;;;;;;;23.90;12.25;;;;;;;-0.25;100.00;101052.78;7395780;19;20540;-43
2021/12/06 07:13:04;;;;;;;27.92;13.95;;;;;;;-0.25;100.00;101049.34;7403528;19;20122;-45
2021/12/06 07:15:36;;;;;;;24.98;12.73;;;;;;;-0.26;100.00;101050.97;7397333;19;20192;-44
2021/12/06 07:18:07;;;;;;;27.25;12.25;;;;;;;-0.29;100.00;101055.78;7401141;19;20215;-44
2021/12/06 07:20:39;;;;;;;22.75;12.13;;;;;;;-0.31;100.00;101054.78;7397673;19;20203;-44
2021/12/06 07:23:09;;;;;;;21.67;12.25;;;;;;;-0.30;100.00;101052.34;7403169;19;20123;-46
2021/12/06 07:25:41;;;;;;;20.77;11.65;;;;;;;-0.31;100.00;101053.09;7396964;19;20679;-45
2021/12/06 07:28:11;;;;;;;28.17;13.70;;;;;;;-0.29;100.00;101051.59;7405245;19;20567;-44
2021/12/06 07:30:41;;;;;;;24.92;13.50;;;;;;;-0.31;100.00;101058.19;7398556;19;20242;-43
2021/12/06 07:33:10;;;;;;;21.90;12.20;;;;;;;-0.30;100.00;101054.00;7402872;19;20174;-44
2021/12/06 07:35:40;;;;;;;24.95;12.88;;;;;;;-0.34;100.00;101051.94;7397046;19;20190;-42
2021/12/06 07:38:09;;;;;;;24.02;12.32;;;;;;;-0.35;100.00;101051.06;7400307;19;20182;-44
2021/12/06 07:40:41;;;;;;;22.80;13.02;;;;;;;-0.37;100.00;101052.56;7397249;19;20620;-44
2021/12/06 07:43:11;;;;;;;23.65;12.20;;;;;;;-0.39;100.00;101056.59;7402577;19;20126;-51
2021/12/06 07:45:40;;;;;;;21.02;12.10;;;;;;;-0.39;100.00;101054.06;7397226;19;20652;-44
2021/12/06 07:48:10;;;;;;;24.35;12.68;;;;;;;-0.29;100.00;101046.50;7400242;19;20214;-43
2021/12/06 07:50:39;;;;;;;23.15;12.18;;;;;;;-0.35;100.00;101050.16;7396273;19;20309;-50
2021/12/06 07:53:09;;;;;;;26.65;12.57;;;;;;;-0.30;100.00;101046.41;7402047;19;20528;-45
2021/12/06 07:55:41;;;;;;;23.50;12.40;;;;;;;-0.35;100.00;101048.53;7396478;19;20190;-51
2021/12/06 07:58:12;;;;;;;23.70;11.55;;;;;;;-0.38;100.00;101040.63;7400131;19;20162;-47
2021/12/06 08:00:47;;;;;;;23.48;11.85;;;;;;;-0.36;100.00;101053.47;7396521;19;20245;-49
2021/12/06 08:03:19;;;;;;;23.02;12.07;;;;;;;-0.35;100.00;101050.16;7402442;19;20119;-47
2021/12/06 08:05:51;;;;;;;25.60;12.00;;;;;;;-0.38;100.00;101055.84;7396591;19;20195;-46
2021/12/06 08:08:24;;;;;;;21.38;12.18;;;;;;;-0.39;100.00;101050.63;7399146;19;20214;-50
2021/12/06 08:10:59;;;;;;;22.30;12.05;;;;;;;-0.38;100.00;101045.69;7395998;19;20501;-49
2021/12/06 08:13:30;;;;;;;23.35;11.30;;;;;;;-0.41;100.00;101045.44;7401582;19;20187;-49
2021/12/06 08:16:04;;;;;;;26.33;13.00;;;;;;;-0.42;100.00;101056.31;7398074;19;20197;-51
2021/12/06 08:18:34;;;;;;;22.85;12.35;;;;;;;-0.34;100.00;101057.00;7400894;19;20150;-46
2021/12/06 08:21:03;;;;;;;22.85;12.50;;;;;;;-0.31;100.00;101058.19;7399850;19;20199;-44
2021/12/06 08:23:34;;;;;;;23.48;12.23;;;;;;;-0.33;100.00;101052.09;7401001;19;20175;-48
2021/12/06 08:26:08;;;;;;;23.10;12.77;;;;;;;-0.36;100.00;101053.47;7395913;19;20250;-43
2021/12/06 08:28:39;;;;;;;21.55;11.68;;;;;;;-0.41;100.00;101042.91;7400929;19;20122;-46
2021/12/06 08:31:09;;;;;;;27.67;13.77;;;;;;;-0.42;100.00;101049.59;7392905;19;20250;-46
2021/12/06 08:33:40;;;;;;;21.52;11.50;;;;;;;-0.38;100.00;101049.88;7404946;19;20131;-44
2021/12/06 08:36:11;;;;;;;24.50;11.48;;;;;;;-0.34;100.00;101052.84;7394609;19;20197;-46
2021/12/06 08:38:42;;;;;;;24.98;11.70;;;;;;;-0.35;100.00;101045.09;7400474;19;20130;-44
2021/12/06 08:41:19;;;;;;;22.20;11.55;;;;;;;-0.28;100.00;101047.41;7395593;19;20193;-44
2021/12/06 08:43:49;;;;;;;22.48;10.75;;;;;;;-0.28;100.00;101039.81;7400615;19;20126;-45
2021/12/06 08:46:21;;;;;;;25.17;11.77;;;;;;;-0.27;100.00;101028.91;7394296;19;20197;-44
2021/12/06 08:48:53;;;;;;;23.00;10.80;;;;;;;-0.32;100.00;101017.44;7400636;19;20486;-43
2021/12/06 08:51:24;;;;;;;24.52;12.30;;;;;;;-0.31;100.00;101015.06;7395604;19;20197;-42
2021/12/06 08:53:54;;;;;;;23.40;11.30;;;;;;;-0.31;100.00;101016.72;7400160;19;20135;-44
2021/12/06 08:56:27;;;;;;;22.27;10.40;;;;;;;-0.28;100.00;101015.34;7393722;19;20623;-49
2021/12/06 08:58:57;;;;;;;21.50;10.75;;;;;;;-0.20;100.00;101010.94;7400114;19;20135;-45
2021/12/06 09:01:29;;;;;;;19.40;10.88;;;;;;;-0.26;100.00;101012.94;7395258;19;20189;-43
2021/12/06 09:04:18;;;;;;;22.13;11.20;;;;;;;-0.18;100.00;101018.69;7400079;19;20528;-47
2021/12/06 09:06:50;;;;;;;21.60;10.70;;;;;;;-0.23;100.00;101018.28;7393272;19;20197;-44
2021/12/06 09:09:21;;;;;;;20.17;10.73;;;;;;;-0.28;100.00;101017.88;7399560;19;20125;-42
2021/12/06 09:11:53;;;;;;;21.52;10.80;;;;;;;-0.23;100.00;101020.84;7393462;19;20242;-48
2021/12/06 09:14:24;;;;;;;18.00;9.55;;;;;;;-0.25;100.00;101021.44;7399395;19;20119;-47
2021/12/06 09:16:54;;;;;;;20.30;10.48;;;;;;;-0.21;100.00;101014.25;7397252;19;20245;-47
2021/12/06 09:19:24;;;;;;;19.15;10.15;;;;;;;-0.21;100.00;101019.31;7402894;19;20203;-49
2021/12/06 09:21:53;;;;;;;23.00;11.13;;;;;;;-0.06;100.00;101018.91;7398400;19;20182;-49
2021/12/06 09:24:23;;;;;;;24.63;11.90;;;;;;;-0.01;100.00;101015.13;7399016;19;20182;-43
2021/12/06 09:26:55;;;;;;;24.70;12.23;;;;;;;0.02;100.00;101012.88;7396937;19;20186;-48
2021/12/06 09:29:25;;;;;;;23.58;11.50;;;;;;;0.01;100.00;101031.38;7399167;19;20170;-48
2021/12/06 09:31:57;;;;;;;22.48;9.80;;;;;;;0.06;100.00;101027.59;7396451;19;20550;-47
2021/12/06 09:34:26;;;;;;;18.20;10.13;;;;;;;0.09;100.00;101024.44;7396747;19;20141;-49
2021/12/06 09:36:56;;;;;;;20.92;11.13;;;;;;;0.09;100.00;101020.25;7396920;19;20501;-46
2021/12/06 09:39:26;;;;;;;26.58;13.23;;;;;;;0.17;100.00;101025.09;7401088;19;20119;-46
2021/12/06 09:41:58;;;;;;;85.82;36.72;;;;;;;0.33;100.00;101030.78;7401603;19;20179;-48
2021/12/06 09:44:28;;;;;;;50.30;22.85;;;;;;;0.43;100.00;101032.47;7401419;19;20171;-48
2021/12/06 09:46:58;;;;;;;24.20;12.77;;;;;;;0.37;100.00;101045.50;7403690;19;20214;-46
2021/12/06 09:49:28;;;;;;;25.02;13.30;;;;;;;0.41;100.00;101039.03;7401789;19;20424;-44
2021/12/06 09:52:00;;;;;;;19.48;10.98;;;;;;;0.45;100.00;101040.25;7402867;19;20133;-49
2021/12/06 09:54:33;;;;;;;21.85;11.82;;;;;;;0.52;100.00;101040.00;7401758;19;20448;-46
2021/12/06 09:57:07;;;;;;;18.60;10.45;;;;;;;0.59;100.00;101029.63;7403355;19;20211;-43
2021/12/06 09:59:39;;;;;;;23.30;11.65;;;;;;;0.69;100.00;101035.47;7402019;19;20185;-43
2021/12/06 10:02:12;;;;;;;21.70;11.48;;;;;;;0.70;100.00;101042.31;7405099;19;20123;-43
2021/12/06 10:04:46;;;;;;;24.40;12.80;;;;;;;0.80;100.00;101050.00;7400890;19;20135;-48
2021/12/06 10:07:15;;;;;;;18.40;10.05;;;;;;;0.71;100.00;101039.94;7403286;19;20161;-44
2021/12/06 10:09:46;;;;;;;17.05;10.30;;;;;;;0.51;100.00;101045.84;7400924;19;20167;-44
2021/12/06 10:12:19;;;;;;;18.65;10.52;;;;;;;0.38;100.00;101044.78;7402673;19;20175;-43
2021/12/06 10:14:49;;;;;;;23.08;13.10;;;;;;;0.45;100.00;101040.25;7400341;19;20472;-48
2021/12/06 10:17:20;;;;;;;27.75;13.45;;;;;;;0.60;100.00;101044.09;7403653;19;20225;-43
2021/12/06 10:19:52;;;;;;;31.58;15.65;;;;;;;0.73;100.00;101033.34;7400198;19;20190;-45
2021/12/06 10:22:28;;;;;;;20.70;11.85;;;;;;;0.61;100.00;101040.78;7404832;19;20187;-44
2021/12/06 10:24:59;;;;;;;26.48;12.70;;;;;;;0.38;100.00;101037.16;7402419;19;20189;-44
2021/12/06 10:27:56;;;;;;;63.70;32.60;;;;;;;0.44;100.00;101040.97;7403180;19;20189;-44
2021/12/06 10:30:27;;;;;;;26.05;13.75;;;;;;;0.50;100.00;101029.72;7400903;19;20196;-44
2021/12/06 10:33:04;;;;;;;23.77;13.40;;;;;;;0.43;100.00;101041.72;7409050;19;20129;-44
2021/12/06 10:35:34;;;;;;;33.75;14.32;;;;;;;0.44;100.00;101031.72;7399355;19;20186;-45
2021/12/06 10:38:04;;;;;;;25.50;14.02;;;;;;;0.53;100.00;101031.63;7402349;19;20178;-43
2021/12/06 10:40:36;;;;;;;23.02;12.23;;;;;;;0.60;100.00;101026.31;7398608;19;20193;-43
2021/12/06 10:43:10;;;;;;;26.67;13.27;;;;;;;0.67;100.00;101007.44;7404596;19;20175;-44
2021/12/06 10:45:42;;;;;;;32.88;13.73;;;;;;;0.79;100.00;101008.47;7398768;19;20250;-47
2021/12/06 10:48:15;;;;;;;29.92;14.35;;;;;;;0.79;100.00;100992.31;7401876;19;20155;-47
2021/12/06 10:50:47;;;;;;;24.42;13.73;;;;;;;0.57;100.00;100990.50;7399061;19;20209;-47
2021/12/06 10:53:18;;;;;;;23.75;13.32;;;;;;;0.52;100.00;100976.53;7402270;19;20126;-48
2021/12/06 10:55:51;;;;;;;21.15;13.00;;;;;;;0.50;100.00;100976.38;7398976;19;20246;-49
2021/12/06 10:58:30;;;;;;;29.08;14.05;;;;;;;0.54;100.00;100964.84;7401279;19;20434;-46
2021/12/06 11:01:05;;;;;;;28.85;14.77;;;;;;;0.83;100.00;100950.28;7399046;19;20209;-46
2021/12/06 11:03:40;;;;;;;32.30;16.08;;;;;;;0.82;100.00;100951.91;7403663;19;20540;-46
2021/12/06 11:06:13;;;;;;;28.02;13.80;;;;;;;0.73;100.00;100941.00;7397566;19;20197;-46
2021/12/06 11:08:44;;;;;;;25.42;14.35;;;;;;;0.51;100.00;100944.28;7403061;19;20171;-46
2021/12/06 11:11:16;;;;;;;28.55;15.30;;;;;;;0.48;100.00;100938.91;7397799;19;20194;-46
2021/12/06 11:13:51;;;;;;;30.17;14.50;;;;;;;0.50;100.00;100932.31;7403298;19;20171;-48
2021/12/06 11:16:21;;;;;;;32.08;15.20;;;;;;;0.42;100.00;100948.56;7398343;19;20601;-46
2021/12/06 11:18:54;;;;;;;29.25;15.75;;;;;;;0.27;100.00;100966.78;7403483;19;20158;-49
2021/12/06 11:21:27;;;;;;;34.08;16.17;;;;;;;0.16;100.00;100954.81;7398031;19;20199;-44
2021/12/06 11:24:01;;;;;;;31.23;15.60;;;;;;;0.21;100.00;100953.56;7403148;19;20418;-43
2021/12/06 11:26:32;;;;;;;33.72;16.73;;;;;;;0.29;100.00;100952.56;7396623;19;20618;-49
2021/12/06 11:29:10;;;;;;;29.42;16.88;;;;;;;0.28;100.00;100962.59;7403091;19;20129;-47
2021/12/06 11:31:42;;;;;;;33.53;15.77;;;;;;;0.29;100.00;100961.84;7396647;19;20194;-43
2021/12/06 11:34:12;;;;;;;29.48;15.57;;;;;;;0.29;100.00;100970.34;7402645;19;20529;-43